Time;durP1;ratioP1;P1;durP2;ratioP2;P2;SDS_P1;SDS_P2;PMS_P1;PMS_P2;Temp;Humidity;BMP_temperature;BMP_pressure;BME280_temperature;BME280_humidity;BME280_pressure;Samples;Min_cycle;Max_cycle;Signal;HPM_P1;HPM_P2
2022/11/14 00:01:53;;;;;;;3.70;2.65;;;;;;;6.22;85.72;101701.22;5017407;28;111380;-32
2022/11/14 00:04:18;;;;;;;5.13;3.10;;;;;;;6.21;86.20;101689.56;5017765;28;96707;-31
2022/11/14 00:06:44;;;;;;;5.82;3.60;;;;;;;6.21;85.95;101697.66;5017530;28;96763;-32
2022/11/14 00:09:09;;;;;;;6.20;3.30;;;;;;;6.24;86.32;101713.69;5016965;28;97944;-31
2022/11/14 00:11:34;;;;;;;6.22;3.08;;;;;;;6.19;86.34;101698.63;5017184;28;99724;-31
2022/11/14 00:14:00;;;;;;;4.32;2.95;;;;;;;6.23;86.05;101711.94;5017003;28;105814;-31
2022/11/14 00:16:25;;;;;;;5.72;3.58;;;;;;;6.22;86.60;101698.53;5017058;28;103170;-31
2022/11/14 00:18:51;;;;;;;4.32;2.80;;;;;;;6.22;85.98;101698.53;5017262;28;97747;-31
2022/11/14 00:21:17;;;;;;;3.22;2.47;;;;;;;6.25;86.22;101706.53;5015299;28;100719;-31
2022/11/14 00:23:42;;;;;;;3.80;2.47;;;;;;;6.26;85.83;101701.06;5017725;28;96447;-31
2022/11/14 00:26:07;;;;;;;4.38;2.90;;;;;;;6.23;86.25;101690.41;5017952;28;96805;-31
2022/11/14 00:28:32;;;;;;;7.28;2.95;;;;;;;6.21;85.86;101689.56;5017099;28;97751;-32
2022/11/14 00:30:58;;;;;;;4.63;2.97;;;;;;;6.24;85.67;101692.16;5016773;28;107368;-31
2022/11/14 00:33:23;;;;;;;4.07;2.95;;;;;;;6.20;86.29;101695.91;5016252;28;104686;-32
2022/11/14 00:35:50;;;;;;;4.85;2.75;;;;;;;6.21;85.88;101700.34;5016971;28;101898;-31
2022/11/14 00:38:15;;;;;;;4.20;2.65;;;;;;;6.19;86.11;101685.16;5014546;28;100880;-31
2022/11/14 00:40:41;;;;;;;5.72;3.55;;;;;;;6.16;85.88;101678.94;5016265;28;117076;-31
2022/11/14 00:43:06;;;;;;;6.65;3.22;;;;;;;6.19;85.89;101672.59;5016881;28;96505;-31
2022/11/14 00:45:31;;;;;;;3.92;2.45;;;;;;;6.16;85.92;101673.56;5016410;28;104399;-31
2022/11/14 00:47:56;;;;;;;4.57;2.58;;;;;;;6.19;85.48;101677.09;5016797;28;103228;-32
2022/11/14 00:50:22;;;;;;;6.97;3.28;;;;;;;6.15;85.67;101676.31;5016618;28;113643;-32
2022/11/14 00:52:47;;;;;;;6.55;2.97;;;;;;;6.12;85.96;101669.19;5016838;28;96572;-32
2022/11/14 00:55:12;;;;;;;4.20;2.30;;;;;;;6.09;85.67;101668.44;5016702;28;100155;-31
2022/11/14 00:57:38;;;;;;;4.97;3.08;;;;;;;6.06;85.72;101672.09;5015767;28;111503;-31
2022/11/14 01:00:04;;;;;;;3.63;2.22;;;;;;;6.04;85.38;101665.00;5016505;28;97404;-31
2022/11/14 01:02:30;;;;;;;4.05;2.22;;;;;;;6.04;85.67;101652.44;5015275;28;96578;-31
2022/11/14 01:04:55;;;;;;;4.72;2.88;;;;;;;6.04;85.55;101654.25;5016481;28;96781;-31
2022/11/14 01:07:20;;;;;;;9.65;2.95;;;;;;;6.04;85.61;101655.13;5016173;28;99370;-31
2022/11/14 01:09:46;;;;;;;4.03;2.70;;;;;;;6.00;85.48;101655.25;5016264;28;104036;-33
2022/11/14 01:12:11;;;;;;;5.45;2.40;;;;;;;6.01;85.41;101662.41;5014013;28;96491;-31
2022/11/14 01:14:38;;;;;;;2.85;1.92;;;;;;;6.00;85.51;101658.81;5014185;28;98828;-31
2022/11/14 01:17:03;;;;;;;4.72;2.75;;;;;;;5.97;85.72;101653.53;5012358;28;100927;-31
2022/11/14 01:19:28;;;;;;;7.25;2.95;;;;;;;5.99;85.69;101649.00;5013311;28;113165;-32
2022/11/14 01:21:54;;;;;;;7.90;2.58;;;;;;;6.01;85.46;101648.97;5012626;28;96667;-31
2022/11/14 01:24:19;;;;;;;3.15;2.35;;;;;;;5.99;85.42;101642.75;5013307;28;113336;-32
2022/11/14 01:26:44;;;;;;;4.35;2.38;;;;;;;6.00;85.32;101641.81;5013913;28;97827;-32
2022/11/14 01:29:10;;;;;;;5.05;2.10;;;;;;;5.95;85.68;101645.50;5013297;28;107621;-31
2022/11/14 01:31:35;;;;;;;3.47;2.10;;;;;;;5.93;85.62;101633.91;4995678;28;96741;-31
2022/11/14 01:34:00;;;;;;;4.72;2.35;;;;;;;5.93;85.88;101633.91;5013982;28;96831;-31
2022/11/14 01:36:26;;;;;;;3.05;1.95;;;;;;;5.88;85.48;101624.19;5013741;28;97444;-31
2022/11/14 01:38:52;;;;;;;5.00;2.90;;;;;;;5.91;85.29;101619.63;5013528;28;110700;-33
2022/11/14 01:41:18;;;;;;;4.93;2.92;;;;;;;5.88;85.50;101616.13;5012103;28;96774;-31
2022/11/14 01:43:44;;;;;;;4.18;2.83;;;;;;;5.90;85.30;101616.97;5013311;28;96845;-31
2022/11/14 01:46:30;;;;;;;4.97;2.92;;;;;;;5.86;85.57;101610.78;5012551;28;98743;-31
2022/11/14 01:49:00;;;;;;;4.05;2.65;;;;;;;5.82;85.32;101602.88;5011966;28;99684;-32
2022/11/14 01:51:34;;;;;;;6.00;2.97;;;;;;;5.82;85.71;101603.75;5012250;28;96467;-31
2022/11/14 01:54:04;;;;;;;3.30;2.00;;;;;;;5.78;85.82;101604.75;5012002;28;96700;-31
2022/11/14 01:56:44;;;;;;;6.38;2.78;;;;;;;5.78;85.46;101604.75;5011833;28;101312;-30
2022/11/14 01:59:16;;;;;;;4.38;2.03;;;;;;;5.75;85.58;101591.44;5011914;28;100957;-31
2022/11/14 02:01:46;;;;;;;3.30;2.38;;;;;;;5.69;85.48;101583.53;5012043;28;96589;-32
2022/11/14 02:04:16;;;;;;;5.22;2.63;;;;;;;5.68;85.53;101589.84;5011969;28;96825;-31
2022/11/14 02:06:43;;;;;;;6.47;2.72;;;;;;;5.68;85.52;101585.34;5013047;28;97999;-31
2022/11/14 02:09:08;;;;;;;3.35;2.65;;;;;;;5.64;85.74;101575.59;5011701;28;101007;-32
2022/11/14 02:11:37;;;;;;;4.93;2.42;;;;;;;5.66;85.76;101575.56;5012374;28;96632;-31
2022/11/14 02:14:03;;;;;;;6.30;2.78;;;;;;;5.63;85.89;101581.03;5011737;28;96839;-31
2022/11/14 02:16:28;;;;;;;4.60;2.10;;;;;;;5.60;85.55;101573.94;5011286;28;101303;-30
2022/11/14 02:18:54;;;;;;;4.97;2.97;;;;;;;5.60;85.25;101565.88;5012765;28;98569;-31
2022/11/14 02:21:20;;;;;;;1.50;1.40;;;;;;;5.58;85.69;101561.44;5012762;28;96833;-31
2022/11/14 02:23:45;;;;;;;3.70;2.22;;;;;;;5.54;85.43;101560.69;5012992;28;96730;-31
2022/11/14 02:26:10;;;;;;;3.47;2.35;;;;;;;5.54;85.80;101564.25;5010773;28;111311;-30
2022/11/14 02:28:36;;;;;;;3.15;2.15;;;;;;;5.56;85.95;101560.66;5012907;28;98646;-31
2022/11/14 02:31:02;;;;;;;3.50;2.28;;;;;;;5.55;85.78;101562.44;5011480;28;96557;-31
2022/11/14 02:33:27;;;;;;;5.80;2.85;;;;;;;5.55;85.67;101557.06;5012966;28;96772;-32
2022/11/14 02:35:52;;;;;;;5.95;2.28;;;;;;;5.53;85.79;101562.50;5010137;28;116759;-31
2022/11/14 02:38:18;;;;;;;4.88;2.90;;;;;;;5.53;85.57;101556.25;5012910;28;97807;-32
2022/11/14 02:40:43;;;;;;;4.47;2.63;;;;;;;5.46;85.48;101552.84;5012689;28;96644;-31
2022/11/14 02:43:08;;;;;;;4.65;2.60;;;;;;;5.45;85.77;101542.13;5012563;28;96799;-31
2022/11/14 02:45:34;;;;;;;5.65;2.30;;;;;;;5.46;85.62;101544.78;5012152;28;104827;-32
2022/11/14 02:47:59;;;;;;;3.47;2.47;;;;;;;5.45;85.85;101539.44;5012648;28;97837;-31
2022/11/14 02:50:24;;;;;;;3.88;2.80;;;;;;;5.44;86.02;101540.38;5012554;28;96828;-31
2022/11/14 02:52:50;;;;;;;5.25;2.60;;;;;;;5.42;85.71;101532.34;5012601;28;107446;-31
2022/11/14 02:55:16;;;;;;;3.40;2.55;;;;;;;5.45;85.93;101537.63;5012308;28;97956;-31
2022/11/14 02:57:41;;;;;;;3.42;2.38;;;;;;;5.39;85.66;101524.41;5012345;28;97353;-31
2022/11/14 03:00:07;;;;;;;5.00;2.85;;;;;;;5.39;85.98;101531.59;5011457;28;117433;-32
2022/11/14 03:02:33;;;;;;;5.50;2.72;;;;;;;5.36;86.07;101528.97;5011889;28;96455;-32
2022/11/14 03:04:58;;;;;;;3.80;2.70;;;;;;;5.33;85.85;101524.56;5010444;28;101201;-31
2022/11/14 03:07:23;;;;;;;5.40;2.58;;;;;;;5.28;85.83;101515.75;5012279;28;97756;-31
2022/11/14 03:09:48;;;;;;;5.45;2.75;;;;;;;5.28;86.03;101515.75;5011437;28;120627;-31
2022/11/14 03:12:17;;;;;;;5.10;2.47;;;;;;;5.27;85.57;101508.66;5011780;28;111241;-32
2022/11/14 03:14:44;;;;;;;3.95;2.30;;;;;;;5.29;86.03;101509.44;5010592;28;101115;-31
2022/11/14 03:17:09;;;;;;;3.03;1.65;;;;;;;5.26;85.94;101512.22;5010715;28;100715;-32
2022/11/14 03:19:34;;;;;;;5.85;2.28;;;;;;;5.19;85.61;101508.84;5011953;28;96631;-31
2022/11/14 03:21:59;;;;;;;3.85;2.70;;;;;;;5.16;86.15;101514.31;5011749;28;96931;-31
2022/11/14 03:24:25;;;;;;;3.58;2.78;;;;;;;5.09;85.90;101501.97;5011190;28;106348;-32
2022/11/14 03:26:50;;;;;;;4.65;3.10;;;;;;;5.13;86.07;101513.53;5011406;28;113641;-31
2022/11/14 03:29:15;;;;;;;4.25;2.90;;;;;;;5.11;85.73;101506.38;5012211;28;96666;-31
2022/11/14 03:31:41;;;;;;;3.58;2.67;;;;;;;5.08;86.01;101509.16;5011948;28;96792;-31
2022/11/14 03:34:08;;;;;;;4.40;2.75;;;;;;;5.06;86.05;101513.69;5011931;28;101335;-31
2022/11/14 03:36:34;;;;;;;5.22;2.95;;;;;;;5.08;86.30;101514.53;5010288;28;101082;-31
2022/11/14 03:38:59;;;;;;;4.68;2.70;;;;;;;5.07;86.13;101507.38;5011784;28;102774;-30
2022/11/14 03:41:24;;;;;;;4.40;2.42;;;;;;;5.09;86.08;101516.28;5012361;28;96711;-31
2022/11/14 03:43:49;;;;;;;4.95;2.67;;;;;;;5.09;85.96;101520.78;5011847;28;97875;-31
2022/11/14 03:46:15;;;;;;;6.05;2.97;;;;;;;5.09;86.31;101508.22;5011444;28;109097;-32
2022/11/14 03:48:40;;;;;;;4.78;3.03;;;;;;;5.10;86.19;101512.69;5010632;28;108179;-31
2022/11/14 03:51:05;;;;;;;5.82;3.38;;;;;;;5.11;85.90;101511.75;5011084;28;113487;-31
2022/11/14 03:53:31;;;;;;;5.03;3.05;;;;;;;5.08;86.23;101509.16;5011493;28;99329;-31
2022/11/14 03:55:56;;;;;;;4.38;1.90;;;;;;;5.08;86.19;101503.78;5011486;28;99184;-31
2022/11/14 03:58:21;;;;;;;3.63;2.55;;;;;;;5.06;85.65;101507.44;5011460;28;104374;-31
2022/11/14 04:00:47;;;;;;;6.47;3.15;;;;;;;5.02;86.03;101500.38;5011817;28;96868;-31
2022/11/14 04:03:12;;;;;;;3.88;2.65;;;;;;;4.99;86.29;101493.31;5011306;28;97888;-31
2022/11/14 04:05:37;;;;;;;4.10;2.53;;;;;;;4.97;86.26;101495.16;5011285;28;104366;-31
2022/11/14 04:08:06;;;;;;;7.35;3.03;;;;;;;4.98;86.13;101490.66;5011348;28;96460;-31
2022/11/14 04:10:31;;;;;;;4.07;2.50;;;;;;;4.93;85.74;101484.53;5010258;28;97094;-32
2022/11/14 04:12:56;;;;;;;8.45;2.72;;;;;;;4.89;86.21;101486.44;5010421;28;111478;-31
2022/11/14 04:15:22;;;;;;;4.45;2.83;;;;;;;4.85;86.31;101479.38;5013904;28;109076;-31
2022/11/14 04:17:47;;;;;;;5.50;3.30;;;;;;;4.85;86.56;101487.44;5014719;28;96416;-33
2022/11/14 04:20:13;;;;;;;5.88;3.03;;;;;;;4.85;86.62;101480.25;5015061;28;96744;-31
2022/11/14 04:22:39;;;;;;;5.70;3.17;;;;;;;4.83;85.87;101473.19;5012834;28;101453;-31
2022/11/14 04:25:05;;;;;;;3.65;2.47;;;;;;;4.85;86.41;101479.38;5014568;28;98893;-31
2022/11/14 04:27:31;;;;;;;4.18;2.60;;;;;;;4.81;86.39;101483.06;5013270;28;96963;-32
2022/11/14 04:29:56;;;;;;;3.97;2.55;;;;;;;4.81;86.51;101480.38;5015042;28;96792;-32
2022/11/14 04:32:21;;;;;;;4.43;2.67;;;;;;;4.81;86.71;101480.38;5014703;28;97353;-31
2022/11/14 04:34:47;;;;;;;4.32;2.72;;;;;;;4.77;86.00;101473.38;5014030;28;113467;-31
2022/11/14 04:37:12;;;;;;;4.15;2.83;;;;;;;4.73;86.69;101475.25;5014225;28;96475;-32
2022/11/14 04:39:37;;;;;;;5.90;2.58;;;;;;;4.73;86.21;101469.88;5014785;28;101378;-31
2022/11/14 04:42:03;;;;;;;3.60;2.90;;;;;;;4.68;86.64;101471.81;5014250;28;108807;-31
2022/11/14 04:44:28;;;;;;;3.83;2.75;;;;;;;4.62;86.80;101461.22;5014323;28;99135;-31
2022/11/14 04:46:53;;;;;;;4.75;3.00;;;;;;;4.61;86.59;101465.72;5014247;28;96609;-32
2022/11/14 04:49:19;;;;;;;4.93;3.33;;;;;;;4.65;86.94;101463.84;5014478;28;96711;-31
2022/11/14 04:51:44;;;;;;;3.97;2.80;;;;;;;4.65;86.66;101456.66;5014042;28;99387;-31
2022/11/14 04:54:09;;;;;;;6.65;4.18;;;;;;;4.67;86.55;101460.19;5014339;28;99142;-31
2022/11/14 04:56:35;;;;;;;4.93;3.38;;;;;;;4.68;86.67;101456.56;5013954;28;109695;-30
2022/11/14 04:59:00;;;;;;;4.47;2.97;;;;;;;4.65;86.26;101451.31;5014151;28;96790;-33
2022/11/14 05:01:25;;;;;;;3.72;2.47;;;;;;;4.64;86.74;101438.78;5012721;28;121201;-32
2022/11/14 05:03:51;;;;;;;6.57;3.45;;;;;;;4.63;86.42;101436.16;5013909;28;99104;-31
2022/11/14 05:06:16;;;;;;;8.07;3.78;;;;;;;4.61;86.66;101427.28;5013930;28;96567;-32
2022/11/14 05:08:41;;;;;;;12.00;3.95;;;;;;;4.60;86.54;101428.19;5014297;28;96761;-31
2022/11/14 05:11:13;;;;;;;6.50;3.22;;;;;;;4.51;86.00;101421.28;5013717;28;98890;-32
2022/11/14 05:13:38;;;;;;;7.53;3.63;;;;;;;4.49;86.46;101428.50;5012664;28;100701;-31
2022/11/14 05:16:03;;;;;;;6.50;3.53;;;;;;;4.45;86.47;101429.50;5013071;28;116442;-30
2022/11/14 05:18:29;;;;;;;4.45;3.17;;;;;;;4.40;86.55;101423.38;5014231;28;96896;-31
2022/11/14 05:20:57;;;;;;;5.45;2.63;;;;;;;4.39;86.77;101435.03;5012909;28;118729;-31
2022/11/14 05:23:22;;;;;;;9.43;3.70;;;;;;;4.37;86.93;101426.16;5012513;28;100834;-31
2022/11/14 05:26:05;;;;;;;5.63;3.65;;;;;;;4.38;86.80;101425.22;5012506;28;106472;-31
2022/11/14 05:28:30;;;;;;;;;;;;;;;4.38;86.76;101433.25;5012756;28;97039;-31
2022/11/14 05:31:06;;;;;;;3.38;1.83;;;;;;;4.33;86.86;101419.09;5013655;28;97413;-31
2022/11/14 05:33:32;;;;;;;3.42;2.50;;;;;;;4.32;86.90;101417.34;5012086;28;101270;-31
2022/11/14 05:36:05;;;;;;;5.40;2.63;;;;;;;4.25;87.04;101419.31;5012290;28;96589;-32
2022/11/14 05:38:31;;;;;;;6.15;3.03;;;;;;;4.24;87.24;101415.75;5013490;28;96724;-31
2022/11/14 05:40:57;;;;;;;4.50;3.33;;;;;;;4.26;87.03;101416.56;5012132;28;101391;-31
2022/11/14 05:43:23;;;;;;;5.22;3.10;;;;;;;4.28;86.95;101412.97;5013760;28;98641;-32
2022/11/14 05:45:48;;;;;;;4.53;3.33;;;;;;;4.30;86.59;101421.88;5013542;28;96498;-31
2022/11/14 05:48:13;;;;;;;6.35;4.22;;;;;;;4.25;87.13;101414.81;5013630;28;96775;-31
2022/11/14 05:50:39;;;;;;;5.88;4.35;;;;;;;4.23;87.28;101418.47;5012227;28;118629;-32
2022/11/14 05:53:04;;;;;;;10.15;5.47;;;;;;;4.24;86.98;101418.44;5012150;28;125244;-32
2022/11/14 05:55:29;;;;;;;4.85;3.08;;;;;;;4.25;86.96;101419.31;5012920;28;108731;-31
2022/11/14 05:57:58;;;;;;;3.95;2.60;;;;;;;4.20;86.85;101411.38;5012872;28;108786;-30
2022/11/14 06:00:24;;;;;;;4.43;3.15;;;;;;;4.16;86.95;101412.38;5011851;28;101080;-31
2022/11/14 06:02:54;;;;;;;5.45;3.00;;;;;;;4.13;87.03;101414.25;5011816;28;99807;-32
2022/11/14 06:05:22;;;;;;;7.40;4.53;;;;;;;4.14;87.08;101413.31;5011586;28;96613;-31
2022/11/14 06:07:54;;;;;;;5.13;3.28;;;;;;;4.07;87.20;101407.25;5013672;28;96764;-31
2022/11/14 06:10:19;;;;;;;6.32;3.55;;;;;;;4.07;87.02;101417.09;5011475;28;101438;-31
2022/11/14 06:12:46;;;;;;;6.93;3.47;;;;;;;4.04;87.26;101416.25;5013221;28;104549;-31
2022/11/14 06:15:11;;;;;;;5.18;3.35;;;;;;;4.08;87.29;101416.19;5010981;28;97124;-31
2022/11/14 06:17:36;;;;;;;5.07;3.25;;;;;;;4.09;87.72;101420.63;5011236;28;104758;-33
2022/11/14 06:20:02;;;;;;;12.93;3.40;;;;;;;4.11;86.95;101427.69;5012448;28;115580;-31
2022/11/14 06:22:27;;;;;;;5.82;3.45;;;;;;;4.12;87.39;101429.44;5012518;28;98170;-31
2022/11/14 06:24:52;;;;;;;4.07;2.55;;;;;;;4.12;86.79;101418.72;5012439;28;105588;-31
2022/11/14 06:27:17;;;;;;;3.53;2.42;;;;;;;4.13;86.90;101419.63;5012877;28;100264;-32
2022/11/14 06:29:43;;;;;;;10.93;4.50;;;;;;;4.11;86.91;101414.28;5012650;28;99481;-32
2022/11/14 06:32:08;;;;;;;4.68;3.10;;;;;;;4.09;86.85;101399.16;5012258;28;116441;-32
2022/11/14 06:34:33;;;;;;;5.72;3.65;;;;;;;4.09;86.75;101416.13;5012956;28;100236;-31
2022/11/14 06:36:58;;;;;;;8.43;3.92;;;;;;;4.08;86.82;101411.69;5011624;28;103840;-31
2022/11/14 06:39:24;;;;;;;13.15;4.53;;;;;;;4.04;86.52;101405.50;5011723;28;110666;-31
2022/11/14 06:41:49;;;;;;;5.60;2.80;;;;;;;4.07;86.79;101414.41;5012573;28;105182;-31
2022/11/14 06:44:15;;;;;;;6.57;3.58;;;;;;;4.03;86.95;101414.50;5011875;28;118734;-31
2022/11/14 06:46:40;;;;;;;8.55;3.50;;;;;;;4.04;86.69;101416.25;5012757;28;96945;-31
2022/11/14 06:49:05;;;;;;;5.70;3.70;;;;;;;4.04;87.04;101415.38;5011886;28;119763;-32
2022/11/14 06:51:30;;;;;;;6.15;3.70;;;;;;;4.06;87.27;101418.91;5012306;28;99240;-31
2022/11/14 06:53:57;;;;;;;3.60;3.22;;;;;;;4.07;86.62;101414.41;5012290;28;96493;-31
2022/11/14 06:56:22;;;;;;;5.82;3.78;;;;;;;4.03;86.77;101416.31;5011348;28;96643;-31
2022/11/14 06:58:48;;;;;;;4.57;3.22;;;;;;;3.99;86.66;101412.81;5012425;28;97934;-31
2022/11/14 07:01:17;;;;;;;6.55;3.15;;;;;;;3.94;86.93;101421.88;5010905;28;100843;-32
2022/11/14 07:03:43;;;;;;;4.82;3.40;;;;;;;3.98;87.36;101420.88;5010248;28;97334;-32
2022/11/14 07:06:11;;;;;;;5.78;3.10;;;;;;;3.95;87.47;101421.81;5012120;28;96714;-31
2022/11/14 07:08:37;;;;;;;3.65;2.67;;;;;;;3.93;86.89;101420.09;5010672;28;101133;-31
2022/11/14 07:11:08;;;;;;;5.15;3.78;;;;;;;3.94;87.14;101422.75;5012316;28;97957;-31
2022/11/14 07:13:35;;;;;;;7.40;3.67;;;;;;;3.94;87.36;101419.22;5012333;28;96796;-31
2022/11/14 07:16:01;;;;;;;3.75;2.40;;;;;;;3.92;87.10;101415.69;5010598;28;96788;-32
2022/11/14 07:18:30;;;;;;;5.03;3.03;;;;;;;3.93;87.15;101412.06;5010661;28;100895;-31
2022/11/14 07:21:04;;;;;;;3.72;2.53;;;;;;;3.97;87.16;101411.06;5010889;28;101319;-31
2022/11/14 07:23:31;;;;;;;4.88;2.90;;;;;;;3.97;87.42;101411.06;5010646;28;97282;-31
2022/11/14 07:26:01;;;;;;;5.25;2.80;;;;;;;3.97;87.60;101400.34;5010675;28;96740;-31
2022/11/14 07:28:26;;;;;;;5.18;3.40;;;;;;;3.98;87.40;101399.44;5009977;28;101081;-31
2022/11/14 07:30:52;;;;;;;4.88;3.28;;;;;;;3.98;87.22;101396.75;5011675;28;99137;-31
2022/11/14 07:33:17;;;;;;;4.95;3.10;;;;;;;4.00;87.00;101403.84;5012104;28;96522;-31
2022/11/14 07:35:42;;;;;;;4.38;2.60;;;;;;;3.97;87.38;101393.19;5011881;28;96451;-32
2022/11/14 07:38:08;;;;;;;6.88;3.70;;;;;;;3.99;87.31;101399.41;5011925;28;97302;-30
2022/11/14 07:40:33;;;;;;;4.15;2.35;;;;;;;3.97;87.23;101384.28;5011425;28;108092;-31
2022/11/14 07:42:59;;;;;;;7.28;3.15;;;;;;;4.00;87.07;101387.78;5010518;28;101980;-31
2022/11/14 07:45:26;;;;;;;5.88;2.58;;;;;;;4.01;87.10;101388.66;5010698;28;96761;-31
2022/11/14 07:47:59;;;;;;;1.92;1.70;;;;;;;4.00;86.87;101394.91;5011208;28;101433;-31
2022/11/14 07:50:26;;;;;;;4.45;3.10;;;;;;;4.02;87.32;101396.63;5015255;28;97379;-33
2022/11/14 07:52:53;;;;;;;4.22;2.03;;;;;;;4.01;87.34;101388.66;5013434;28;97003;-30
2022/11/14 07:55:19;;;;;;;3.90;2.70;;;;;;;4.01;87.63;101391.31;5013901;28;96988;-31
2022/11/14 07:57:44;;;;;;;6.38;3.63;;;;;;;3.98;87.60;101386.03;5015028;28;99728;-31
2022/11/14 08:00:10;;;;;;;4.43;2.67;;;;;;;4.01;87.53;101384.16;5015155;28;97150;-31
2022/11/14 08:02:36;;;;;;;4.95;2.72;;;;;;;4.00;87.26;101386.88;5015261;28;96572;-31
2022/11/14 08:05:01;;;;;;;5.10;3.17;;;;;;;3.99;87.35;101390.47;5014818;28;96869;-31
2022/11/14 08:07:26;;;;;;;6.13;2.95;;;;;;;4.02;87.87;101387.72;5015145;28;97930;-32
2022/11/14 08:09:52;;;;;;;3.25;2.40;;;;;;;3.98;87.81;101377.97;5015507;28;97821;-34
2022/11/14 08:12:17;;;;;;;4.00;2.33;;;;;;;4.01;87.95;101381.47;5015195;28;96587;-33
2022/11/14 08:14:42;;;;;;;4.90;2.53;;;;;;;4.04;87.67;101380.53;5014838;28;96643;-31
2022/11/14 08:17:08;;;;;;;7.35;2.83;;;;;;;4.01;87.61;101380.59;5013388;28;118520;-31
2022/11/14 08:19:33;;;;;;;6.05;3.00;;;;;;;4.01;87.80;101388.66;5014235;28;121470;-33
2022/11/14 08:21:58;;;;;;;2.88;2.45;;;;;;;4.00;87.76;101390.47;5013858;28;108187;-31
2022/11/14 08:24:23;;;;;;;3.47;2.42;;;;;;;4.06;87.63;101385.84;5013007;28;104544;-32
2022/11/14 08:26:49;;;;;;;3.42;2.50;;;;;;;4.08;87.65;101387.56;5013727;28;121114;-32
2022/11/14 08:29:15;;;;;;;4.55;2.50;;;;;;;4.07;87.46;101376.88;5015207;28;96834;-31
2022/11/14 08:31:41;;;;;;;2.53;1.83;;;;;;;4.10;88.19;101377.69;5014447;28;106888;-32
2022/11/14 08:34:06;;;;;;;2.53;1.48;;;;;;;4.07;88.30;101376.88;5014544;28;106156;-32
2022/11/14 08:36:31;;;;;;;5.07;2.60;;;;;;;4.10;88.20;101376.78;5014651;28;97423;-31
2022/11/14 08:38:57;;;;;;;5.35;2.47;;;;;;;4.16;87.94;101369.47;5014924;28;97766;-31
2022/11/14 08:41:22;;;;;;;3.67;2.17;;;;;;;4.17;87.71;101363.22;5014251;28;96467;-31
2022/11/14 08:43:47;;;;;;;2.45;1.90;;;;;;;4.23;87.76;101362.16;5014469;28;98218;-31
2022/11/14 08:46:12;;;;;;;5.25;1.83;;;;;;;4.21;88.02;101354.13;5013352;28;117687;-31
2022/11/14 08:48:38;;;;;;;2.08;1.77;;;;;;;4.24;87.43;101353.16;5014057;28;99184;-30
2022/11/14 08:51:05;;;;;;;3.55;2.17;;;;;;;4.25;87.93;101346.91;5013892;28;112765;-31
2022/11/14 08:53:30;;;;;;;2.58;1.90;;;;;;;4.29;87.29;101343.22;5012859;28;97456;-31
2022/11/14 08:55:56;;;;;;;7.90;2.88;;;;;;;4.31;87.45;101337.78;5013949;28;99400;-31
2022/11/14 08:58:21;;;;;;;5.20;2.53;;;;;;;4.35;87.27;101340.34;5014359;28;114175;-32
2022/11/14 09:00:46;;;;;;;4.28;2.60;;;;;;;4.41;87.55;101340.19;5013467;28;98042;-31
2022/11/14 09:03:13;;;;;;;3.05;2.20;;;;;;;4.42;87.39;101336.56;5014006;28;96803;-31
2022/11/14 09:05:39;;;;;;;2.58;2.03;;;;;;;4.49;87.14;101334.59;5011795;28;101453;-30
2022/11/14 09:08:04;;;;;;;2.70;1.77;;;;;;;4.52;87.20;101330.97;5014014;28;97793;-30
2022/11/14 09:10:30;;;;;;;1.55;1.40;;;;;;;4.56;86.92;101333.50;5014251;28;96553;-31
2022/11/14 09:12:56;;;;;;;7.15;2.30;;;;;;;4.63;86.77;101335.09;5014224;28;96731;-32
2022/11/14 09:15:22;;;;;;;4.72;2.33;;;;;;;4.72;86.98;101331.28;5012223;28;99475;-30
2022/11/14 09:17:47;;;;;;;2.40;2.08;;;;;;;4.81;86.87;101322.91;5013342;28;113263;-31
2022/11/14 09:20:13;;;;;;;2.50;2.10;;;;;;;4.92;86.28;101327.09;5013630;28;101935;-31
2022/11/14 09:22:39;;;;;;;1.90;1.70;;;;;;;4.99;86.03;101326.84;5013795;28;96772;-30
2022/11/14 09:25:04;;;;;;;2.85;2.03;;;;;;;5.08;86.33;101320.34;5012168;28;98031;-31
2022/11/14 09:27:30;;;;;;;2.80;2.33;;;;;;;5.21;85.79;101328.88;5013796;28;97420;-31
2022/11/14 09:29:55;;;;;;;6.18;3.00;;;;;;;5.31;85.97;101323.19;5013073;28;96523;-31
2022/11/14 09:32:20;;;;;;;2.63;1.67;;;;;;;5.43;85.13;101332.63;5013430;28;97584;-31
2022/11/14 09:34:46;;;;;;;2.53;2.20;;;;;;;5.53;85.56;101330.53;5013214;28;121121;-30
2022/11/14 09:37:12;;;;;;;4.15;2.38;;;;;;;5.68;85.36;101323.78;5012125;28;100986;-31
2022/11/14 09:39:39;;;;;;;2.60;2.03;;;;;;;5.81;85.50;101316.16;5013427;28;96589;-30
2022/11/14 09:42:13;;;;;;;2.97;2.22;;;;;;;5.92;84.75;101322.06;5012177;28;96756;-31
2022/11/14 09:45:13;;;;;;;3.65;2.05;;;;;;;6.06;84.06;101318.91;5012014;28;100789;-31
2022/11/14 09:47:43;;;;;;;2.53;1.60;;;;;;;6.14;84.25;101320.38;4980068;28;99206;-30
2022/11/14 09:50:15;;;;;;;2.17;1.83;;;;;;;6.30;83.86;101315.34;5012048;28;96728;-31
2022/11/14 09:52:46;;;;;;;5.85;2.78;;;;;;;6.41;83.36;101306.84;5012066;28;96787;-31
2022/11/14 09:55:18;;;;;;;3.30;2.60;;;;;;;6.60;82.66;101317.81;5012876;28;98013;-31
2022/11/14 09:57:44;;;;;;;3.22;2.20;;;;;;;6.70;82.30;101310.31;5011796;28;101506;-31
2022/11/14 10:00:14;;;;;;;3.20;2.60;;;;;;;6.83;82.47;101310.69;5012036;28;96608;-33
2022/11/14 10:03:07;;;;;;;7.72;2.60;;;;;;;7.00;82.12;101301.00;5012008;28;97102;-31
2022/11/14 10:05:51;;;;;;;;;;;;;;;7.15;81.72;101299.53;5013316;28;97849;-32
2022/11/14 10:08:52;;;;;;;2.78;1.60;;;;;;;7.23;80.54;101294.72;5013463;28;97951;-32
2022/11/14 10:11:33;;;;;;;4.43;2.47;;;;;;;7.35;80.63;101293.34;5012427;28;96577;-32
2022/11/14 10:14:26;;;;;;;3.13;1.90;;;;;;;7.42;80.19;101281.38;5012080;28;96705;-31
2022/11/14 10:17:04;;;;;;;;;;;;;;;7.46;79.70;101282.13;5011823;28;100769;-31
2022/11/14 10:20:02;;;;;;;5.82;2.70;;;;;;;7.56;80.29;101282.63;5013210;28;97995;-30
2022/11/14 10:22:56;;;;;;;7.55;2.67;;;;;;;7.76;79.98;101274.53;4997648;28;96921;-30
2022/11/14 10:25:31;;;;;;;4.72;3.03;;;;;;;7.89;79.58;101269.50;5011596;28;96783;-31
2022/11/14 10:28:35;;;;;;;3.10;2.20;;;;;;;8.00;79.23;101271.72;5012818;28;99307;-31
2022/11/14 10:31:30;;;;;;;10.32;3.05;;;;;;;8.08;78.39;101285.78;5012861;28;98043;-32
2022/11/14 10:34:17;;;;;;;4.00;2.45;;;;;;;8.07;78.24;101284.88;5011433;28;96596;-31
2022/11/14 10:36:48;;;;;;;3.22;1.90;;;;;;;8.13;78.07;101282.84;5012837;28;97086;-31
2022/11/14 10:39:29;;;;;;;6.33;2.83;;;;;;;8.14;78.40;101282.78;5012497;28;97599;-30
2022/11/14 10:41:58;;;;;;;6.05;2.65;;;;;;;8.07;78.97;101279.47;5011674;28;101119;-31
2022/11/14 10:44:33;;;;;;;4.50;2.78;;;;;;;8.07;78.88;101290.25;5011280;28;96619;-30
2022/11/14 10:47:05;;;;;;;3.63;2.38;;;;;;;8.01;79.18;101285.16;5011126;28;96685;-30
2022/11/14 10:49:35;;;;;;;5.18;2.60;;;;;;;7.90;79.52;101270.38;5010291;28;101406;-34
2022/11/14 10:52:05;;;;;;;3.63;2.55;;;;;;;7.78;79.92;101264.56;5011021;28;100804;-30
2022/11/14 10:54:58;;;;;;;4.43;2.15;;;;;;;7.72;80.15;101267.50;5011195;28;96676;-31
2022/11/14 10:57:24;;;;;;;4.50;2.53;;;;;;;7.64;80.48;101264.28;5011297;28;96665;-31
2022/11/14 10:59:51;;;;;;;4.05;2.67;;;;;;;7.62;80.64;101258.06;5012134;28;97565;-31
2022/11/14 11:02:16;;;;;;;5.25;2.72;;;;;;;7.60;80.92;101257.25;5010736;28;101342;-31
2022/11/14 11:04:43;;;;;;;2.28;1.80;;;;;;;7.59;80.67;101250.13;5010794;28;96812;-31
2022/11/14 11:07:09;;;;;;;4.25;2.58;;;;;;;7.65;80.96;101250.75;5011150;28;96772;-32
2022/11/14 11:12:35;;;;;;;5.10;2.72;;;;;;;8.00;79.82;101247.44;5012549;28;97022;-31
2022/11/14 11:15:12;;;;;;;4.20;2.92;;;;;;;8.19;79.87;101239.41;5010401;28;97065;-31
2022/11/14 11:18:03;;;;;;;7.22;3.03;;;;;;;8.40;79.56;101241.16;5012343;28;96559;-32
2022/11/14 11:20:38;;;;;;;5.47;3.05;;;;;;;8.58;78.91;101231.34;5010566;28;100556;-31
2022/11/14 11:23:09;;;;;;;3.47;2.53;;;;;;;8.76;78.26;101234.09;5009707;28;101184;-30
2022/11/14 11:25:36;;;;;;;4.72;3.33;;;;;;;8.84;78.25;101235.50;5011950;28;96585;-31
2022/11/14 11:28:14;;;;;;;6.43;3.22;;;;;;;8.98;78.35;101228.53;5010604;28;96779;-32
2022/11/14 11:30:53;;;;;;;5.70;3.17;;;;;;;9.11;77.78;101230.56;5010405;28;100923;-31
2022/11/14 11:33:18;;;;;;;6.68;3.25;;;;;;;9.24;77.81;101233.50;5010570;28;100006;-33
2022/11/14 11:35:47;;;;;;;6.72;3.63;;;;;;;9.31;77.19;101224.16;5012193;28;96644;-32
2022/11/14 11:38:14;;;;;;;6.15;3.28;;;;;;;9.38;77.06;101226.56;5010495;28;96921;-31